KMIB/MIB METAR and TAF weather

Enter ICAO airport designator
Station Type Date Time Source
KMIB METAR 2022/01/29 09:56 UTC NOAA

KMIB 290956Z AUTO 31021KT 10SM OVC180 M03/M09 A2980 RMK AO2 PK WND 31027/10 FZDZB23E33FZDZB33E33 SLP124 P0000 T10321087 $


Station Type Date Time Source
KMIB Decoded METAR 2022/01/29 09:56 UTC NOAA

Minot Air Force Base, ND, United States (KMIB) 48-25N 101-21W
Jan 29, 2022 - 04:56 AM EST / 2022.01.29 0956 UTC
Wind: from the NW (310 degrees) at 24 MPH (21 KT):0
Visibility: 10 mile(s):0
Sky conditions: overcast
Precipitation last hour: A trace
Temperature: 26.2 F (-3.2 C)
Windchill: 10 F (-12 C):1
Dew Point: 16.3 F (-8.7 C)
Relative Humidity: 65%
Pressure (altimeter): 29.8 in. Hg (1009 hPa)
ob: KMIB 290956Z AUTO 31021KT 10SM OVC180 M03/M09 A2980 RMK AO2 PK WND 31027/10 FZDZB23E33FZDZB33E33 SLP124 P0000 T10321087
cycle: 10

Station Type Date Time Source
KMIB TAF 2022/01/28 23:57 UTC NOAA

TAF
AMD KMIB 282345Z 2823/2923 VRB06KT 9999 OVC100 QNH3002INS
BECMG 2904/2905 23009KT 9999 BKN100 QNH2987INS
BECMG 2907/2908 24010G20KT 9999 SCT100 QNH2980INS
BECMG 2909/2910 30015G25KT 9999 SCT010 QNH2983INS
BECMG 2920/2921 32010G20KT 9999 BKN008 620085 QNH2998INS
BECMG 2922/2923 33009KT 9999 BKN010 620104 QNH3000INS TXM03/2917Z TNM11/2823Z LAST NO
AMDS AFT 2823 NEXT 3109

Example: see airport list